Portada
METAR-TAF:

METAR-TAF

Aeropuertos :

Baréin, Bahréin

Aeropuerto Internacional de Baréin

latitud: 26-16N, longitud: 050-39E, altitud: 2 m

Observación

El informe se hizo hace 32 minutos, a las 01:00 UTC
Viento 3 kt del sureste, variando entre este-sureste y sur
Temperatura 16°C
Humedad 77%
Presión 1014 hPa
Visibilidad: 4000 m
Cielo despejado
calima

METAR: OBBI 240100Z 14003KT 110V170 4000 HZ SKC 16/12 Q1014 NOSIG

Hora: 04:32 (01:32 UTC)

Pronóstico

El informe se hizo hace 2 horas y 32 minutos, a las 23:00 UTC
Pronóstico válido del 24 a las 00 UTC al 25 a las 06 UTC
Viento 8 kt del sur-sureste
Visibilidad: 5000 m

TAF: OBBI 232300Z 2400/2506 16008KT 5000 NSC

Observaciones y pronósticos meteorológicos de más de 4000 aeropuertos (mensajes METAR y TAF).

Los puntos amarillos y rojos representan las estaciones disponibles.

Ponga el ratón en el punto deseado para ver el nombre de la estación.

Haga clic para ver las observaciones y los pronósticos meteorológicos.

Para cambiar el mapa : haga clic en los botones verdes con una cruz de color negro para hacer un zoom, en el botón verde con un guión para alejar o en las flechas verdes para mapas adyacentes.


METAR-TAF: